createdAt,value
2023-09-29T00:00:04.982Z,11.28
2023-09-29T00:16:01.728Z,11.28
2023-09-29T00:31:02.424Z,11.22
2023-09-29T00:46:03.472Z,11.11
2023-09-29T01:00:04.599Z,10.94
2023-09-29T01:16:00.703Z,10.89
2023-09-29T01:31:01.649Z,10.89
2023-09-29T01:46:02.863Z,11.06
2023-09-29T02:00:03.931Z,11.06
2023-09-29T02:16:05.093Z,10.94
2023-09-29T02:31:01.153Z,10.94
2023-09-29T02:46:02.476Z,10.83
2023-09-29T03:00:03.318Z,10.72
2023-09-29T03:16:04.313Z,10.56
2023-09-29T03:31:05.296Z,10.33
2023-09-29T03:46:01.442Z,10.17
2023-09-29T04:00:02.603Z,10.06
2023-09-29T04:16:03.665Z,10.17
2023-09-29T04:31:04.758Z,10.17
2023-09-29T04:46:00.801Z,10
2023-09-29T05:00:01.779Z,9.89
2023-09-29T05:16:03.062Z,10.06
2023-09-29T05:31:04.498Z,10
2023-09-29T05:46:00.815Z,9.94
2023-09-29T06:00:01.683Z,10.17
2023-09-29T06:16:02.934Z,10.39
2023-09-29T06:31:04.008Z,10.61
2023-09-29T06:46:05.089Z,11
2023-09-29T07:00:01.116Z,11.56
2023-09-29T07:16:02.140Z,12.17
2023-09-29T07:31:03.472Z,12.78
2023-09-29T07:46:04.417Z,13.44
2023-09-29T08:00:05.311Z,14.33
2023-09-29T08:16:01.376Z,15.5
2023-09-29T08:31:02.917Z,16.44
2023-09-29T08:46:03.874Z,17.28
2023-09-29T09:00:05.264Z,17.94
2023-09-29T09:16:00.970Z,18.56
2023-09-29T09:31:02.376Z,18.67
2023-09-29T09:46:03.577Z,18.89
2023-09-29T10:00:04.442Z,19.44
2023-09-29T10:16:14.139Z,19.89
2023-09-29T10:31:01.571Z,20.28
2023-09-29T10:46:02.715Z,20.72
2023-09-29T11:00:03.965Z,21.06
2023-09-29T11:16:05.061Z,21.06
2023-09-29T11:31:01.409Z,21.28
2023-09-29T11:46:02.632Z,21.72
2023-09-29T12:00:03.542Z,22
2023-09-29T12:16:04.593Z,22
2023-09-29T12:31:00.590Z,22.5
2023-09-29T12:46:01.756Z,22.56
2023-09-29T13:00:02.854Z,22.56
2023-09-29T13:16:04.178Z,22.89
2023-09-29T13:31:05.243Z,23.11
2023-09-29T13:46:01.132Z,23.17
2023-09-29T14:00:02.228Z,23.11
2023-09-29T14:16:03.269Z,23.11
2023-09-29T14:31:04.434Z,23.17
2023-09-29T14:46:00.425Z,23.11
2023-09-29T15:00:01.292Z,22.83
2023-09-29T15:16:02.533Z,22.61
2023-09-29T15:31:03.940Z,22.39
2023-09-29T15:46:04.899Z,22.22
2023-09-29T16:00:00.722Z,21.78
2023-09-29T16:16:01.804Z,21.39
2023-09-29T16:31:02.972Z,20.72
2023-09-29T16:46:04.208Z,20
2023-09-29T17:00:05.196Z,19.33
2023-09-29T17:16:01.302Z,18.72
2023-09-29T17:31:02.604Z,17.94
2023-09-29T17:46:03.731Z,17.28
2023-09-29T18:00:04.750Z,16.72
2023-09-29T18:16:00.985Z,16.22
2023-09-29T18:31:02.004Z,15.67
2023-09-29T18:46:03.149Z,15.17
2023-09-29T19:00:04.259Z,14.83
2023-09-29T19:16:00.282Z,14.44
2023-09-29T19:31:01.242Z,14.06
2023-09-29T19:46:02.339Z,13.67
2023-09-29T20:00:03.606Z,13.44
2023-09-29T20:16:04.818Z,13.22
2023-09-29T20:31:00.770Z,13.17
2023-09-29T20:46:01.880Z,13.28
2023-09-29T21:00:03.319Z,13.17
2023-09-29T21:16:04.390Z,13
2023-09-29T21:31:00.443Z,12.83
2023-09-29T21:46:01.667Z,12.72
2023-09-29T22:00:02.769Z,12.61
2023-09-29T22:16:04.029Z,12.56
2023-09-29T22:31:05.143Z,12.44
2023-09-29T22:46:01.235Z,12.33
2023-09-29T23:00:02.096Z,12.22
2023-09-29T23:16:03.799Z,12.11
2023-09-29T23:31:04.762Z,12
2023-09-29T23:46:00.860Z,11.94
